createdAt,value
2023-01-08T00:02:24.954Z,97575.28
2023-01-08T00:04:55.381Z,97572.63
2023-01-08T00:07:25.511Z,97582.44
2023-01-08T00:09:56.033Z,97578.66
2023-01-08T00:12:26.275Z,97560.78
2023-01-08T00:14:56.430Z,97559.00
2023-01-08T00:17:29.215Z,97546.22
2023-01-08T00:19:59.656Z,97549.34
2023-01-08T00:22:30.270Z,97551.53
2023-01-08T00:25:00.792Z,97537.78
2023-01-08T00:27:30.966Z,97539.16
2023-01-08T00:30:04.068Z,97550.13
2023-01-08T00:32:36.889Z,97542.81
2023-01-08T00:35:08.022Z,97541.19
2023-01-08T00:37:38.044Z,97542.34
2023-01-08T00:40:10.940Z,97531.44
2023-01-08T00:42:41.070Z,97534.69
2023-01-08T00:45:14.219Z,97520.38
2023-01-08T00:47:47.799Z,97513.94
2023-01-08T00:50:18.096Z,97506.78
2023-01-08T00:52:48.237Z,97502.00
2023-01-08T00:55:18.759Z,97493.09
2023-01-08T00:57:48.828Z,97503.03
2023-01-08T01:00:20.276Z,97498.78
2023-01-08T01:02:53.074Z,97490.00
2023-01-08T01:05:23.927Z,97499.44
2023-01-08T01:07:54.103Z,97490.78
2023-01-08T01:10:24.571Z,97499.72
2023-01-08T01:12:54.627Z,97491.72
2023-01-08T01:15:24.681Z,97481.94
2023-01-08T01:17:57.750Z,97484.59
2023-01-08T01:20:27.976Z,97492.31
2023-01-08T01:22:58.183Z,97485.06
2023-01-08T01:25:28.411Z,97477.50
2023-01-08T01:27:58.428Z,97478.78
2023-01-08T01:30:28.481Z,97486.19
2023-01-08T01:33:01.235Z,97489.16
2023-01-08T01:35:31.456Z,97486.97
2023-01-08T01:38:01.504Z,97479.72
2023-01-08T01:40:31.552Z,97491.34
2023-01-08T01:43:01.697Z,97484.09
2023-01-08T01:45:32.213Z,97496.53
2023-01-08T01:48:12.703Z,97500.13
2023-01-08T01:50:49.224Z,97505.00
2023-01-08T01:53:28.686Z,97501.72
2023-01-08T01:56:00.960Z,97507.72
2023-01-08T01:58:33.956Z,97504.22
2023-01-08T02:01:08.853Z,97506.38
2023-01-08T02:03:43.514Z,97501.34
2023-01-08T02:06:26.595Z,97505.78
2023-01-08T02:09:05.734Z,97505.19
2023-01-08T02:12:10.340Z,97496.66
2023-01-08T02:14:56.537Z,97492.91
2023-01-08T02:17:38.941Z,97496.22
2023-01-08T02:20:17.730Z,97488.38
2023-01-08T02:23:26.113Z,97477.53
2023-01-08T02:26:13.956Z,97468.41
2023-01-08T02:28:50.728Z,97472.19
2023-01-08T02:31:23.405Z,97467.47
2023-01-08T02:33:53.575Z,97459.13
2023-01-08T02:36:37.438Z,97448.59
2023-01-08T02:39:48.404Z,97440.41
2023-01-08T02:42:34.133Z,97429.56
2023-01-08T02:45:14.997Z,97423.41
2023-01-08T02:47:48.880Z,97424.06
2023-01-08T02:50:28.960Z,97417.75
2023-01-08T02:53:07.386Z,97418.69
2023-01-08T02:55:41.840Z,97411.28
2023-01-08T02:58:16.149Z,97407.97
2023-01-08T03:00:49.554Z,97400.28
2023-01-08T03:03:25.615Z,97404.06
2023-01-08T03:06:01.003Z,97392.09
2023-01-08T03:08:32.381Z,97398.25
2023-01-08T03:11:08.061Z,97391.78
2023-01-08T03:13:47.890Z,97391.44
2023-01-08T03:16:24.403Z,97394.28
2023-01-08T03:19:00.288Z,97384.69
2023-01-08T03:21:31.323Z,97378.88
2023-01-08T03:24:02.414Z,97382.72
2023-01-08T03:26:35.915Z,97378.28
2023-01-08T03:29:14.109Z,97377.47
2023-01-08T03:31:46.720Z,97375.00
2023-01-08T03:34:19.189Z,97372.88
2023-01-08T03:36:57.431Z,97359.06
2023-01-08T03:39:33.606Z,97359.06
2023-01-08T03:42:12.994Z,97362.22
2023-01-08T03:44:46.205Z,97356.72
2023-01-08T03:47:18.241Z,97352.50
2023-01-08T03:49:50.871Z,97348.41
2023-01-08T03:52:26.394Z,97351.88
2023-01-08T03:54:56.629Z,97357.88
2023-01-08T03:57:26.761Z,97355.81
2023-01-08T03:59:59.695Z,97352.25
2023-01-08T04:02:30.328Z,97356.66
2023-01-08T04:05:00.470Z,97350.53
2023-01-08T04:07:31.391Z,97346.56
2023-01-08T04:10:01.550Z,97338.25
2023-01-08T04:12:31.606Z,97338.06
2023-01-08T04:15:04.396Z,97344.88
2023-01-08T04:17:34.481Z,97352.47
2023-01-08T04:20:04.689Z,97358.44
2023-01-08T04:22:34.753Z,97342.69
2023-01-08T04:25:05.210Z,97345.47
2023-01-08T04:27:35.222Z,97352.88
2023-01-08T04:30:09.558Z,97349.25
2023-01-08T04:32:39.727Z,97353.75
2023-01-08T04:35:10.730Z,97355.97
2023-01-08T04:37:40.738Z,97345.09
2023-01-08T04:40:13.041Z,97355.53
2023-01-08T04:42:43.342Z,97344.00
2023-01-08T04:45:16.547Z,97355.50
2023-01-08T04:47:46.618Z,97361.50
2023-01-08T04:50:16.759Z,97358.50
2023-01-08T04:52:46.806Z,97361.00
2023-01-08T04:55:17.225Z,97355.97
2023-01-08T04:57:47.497Z,97383.16
2023-01-08T05:00:21.152Z,97393.22
2023-01-08T05:02:51.467Z,97385.81
2023-01-08T05:05:21.749Z,97388.72
2023-01-08T05:07:51.815Z,97396.50
2023-01-08T05:10:22.019Z,97390.47
2023-01-08T05:12:52.258Z,97389.03
2023-01-08T05:15:25.050Z,97379.78
2023-01-08T05:18:02.239Z,97383.81
2023-01-08T05:20:32.818Z,97387.28
2023-01-08T05:23:03.111Z,97375.19
2023-01-08T05:25:33.306Z,97383.00
2023-01-08T05:28:03.692Z,97374.53
2023-01-08T05:30:36.572Z,97380.06
2023-01-08T05:33:06.778Z,97370.41
2023-01-08T05:35:36.913Z,97374.97
2023-01-08T05:38:06.914Z,97369.19
2023-01-08T05:40:37.299Z,97365.78
2023-01-08T05:43:07.991Z,97360.56
2023-01-08T05:45:40.763Z,97356.31
2023-01-08T05:48:11.474Z,97342.00
2023-01-08T05:50:41.555Z,97362.53
2023-01-08T05:53:12.977Z,97370.66
2023-01-08T05:55:43.135Z,97382.25
2023-01-08T05:58:14.203Z,97374.34
2023-01-08T06:00:47.525Z,97379.56
2023-01-08T06:03:17.888Z,97362.28
2023-01-08T06:05:48.045Z,97371.66
2023-01-08T06:08:18.510Z,97372.66
2023-01-08T06:10:48.502Z,97366.06
2023-01-08T06:13:18.522Z,97363.53
2023-01-08T06:15:51.319Z,97367.34
2023-01-08T06:18:21.624Z,97373.22
2023-01-08T06:20:51.850Z,97352.72
2023-01-08T06:23:21.911Z,97345.97
2023-01-08T06:25:56.039Z,97346.41
2023-01-08T06:28:26.984Z,97340.22
2023-01-08T06:31:01.121Z,97344.69
2023-01-08T06:33:31.798Z,97328.47
2023-01-08T06:36:04.756Z,97321.09
2023-01-08T06:38:36.105Z,97317.28
2023-01-08T06:41:08.635Z,97315.03
2023-01-08T06:43:39.380Z,97326.22
2023-01-08T06:46:13.310Z,97325.94
2023-01-08T06:48:43.556Z,97360.28
2023-01-08T06:51:13.758Z,97358.13
2023-01-08T06:53:43.763Z,97355.97
2023-01-08T06:56:13.709Z,97351.97
2023-01-08T06:58:43.980Z,97355.78
2023-01-08T07:01:19.730Z,97356.06
2023-01-08T07:03:49.773Z,97345.25
2023-01-08T07:06:23.243Z,97345.09
2023-01-08T07:08:53.299Z,97345.94
2023-01-08T07:11:23.643Z,97355.69
2023-01-08T07:13:53.782Z,97349.78
2023-01-08T07:16:26.997Z,97342.97
2023-01-08T07:18:57.222Z,97346.28
2023-01-08T07:21:27.384Z,97343.31
2023-01-08T07:23:57.437Z,97349.00
2023-01-08T07:26:27.848Z,97348.63
2023-01-08T07:28:58.025Z,97347.66
2023-01-08T07:31:30.741Z,97354.44
2023-01-08T07:34:00.865Z,97359.88
2023-01-08T07:36:30.814Z,97358.81
2023-01-08T07:39:00.829Z,97353.81
2023-01-08T07:41:31.190Z,97356.66
2023-01-08T07:44:01.274Z,97356.41
2023-01-08T07:46:34.126Z,97351.06
2023-01-08T07:49:05.256Z,97357.34
2023-01-08T07:51:35.399Z,97357.22
2023-01-08T07:54:05.445Z,97349.31
2023-01-08T07:56:35.433Z,97351.22
2023-01-08T07:59:05.506Z,97338.25
2023-01-08T08:01:38.143Z,97344.25
2023-01-08T08:04:08.542Z,97346.25
2023-01-08T08:06:38.548Z,97354.53
2023-01-08T08:09:08.676Z,97352.13
2023-01-08T08:11:38.656Z,97351.72
2023-01-08T08:14:08.823Z,97335.06
2023-01-08T08:16:41.504Z,97344.84
2023-01-08T08:19:12.657Z,97351.44
2023-01-08T08:21:42.743Z,97355.22
2023-01-08T08:24:13.399Z,97342.38
2023-01-08T08:26:43.390Z,97349.06
2023-01-08T08:29:14.140Z,97348.09
2023-01-08T08:31:46.778Z,97339.53
2023-01-08T08:34:20.441Z,97327.69
2023-01-08T08:36:50.794Z,97338.44
2023-01-08T08:39:21.197Z,97340.75
2023-01-08T08:41:52.092Z,97340.75
2023-01-08T08:44:22.330Z,97331.03
2023-01-08T08:46:55.194Z,97326.16
2023-01-08T08:49:25.240Z,97335.13
2023-01-08T08:51:55.754Z,97327.91
2023-01-08T08:54:25.828Z,97320.84
2023-01-08T08:56:56.034Z,97321.03
2023-01-08T08:59:26.203Z,97318.66
2023-01-08T09:01:59.396Z,97315.72
2023-01-08T09:04:32.105Z,97312.81
2023-01-08T09:07:03.389Z,97308.31
2023-01-08T09:09:33.629Z,97313.78
2023-01-08T09:12:04.130Z,97315.38
2023-01-08T09:14:34.470Z,97311.88
2023-01-08T09:17:07.600Z,97308.75
2023-01-08T09:19:38.696Z,97308.38
2023-01-08T09:22:08.799Z,97308.22
2023-01-08T09:24:39.282Z,97298.22
2023-01-08T09:27:11.151Z,97300.97
2023-01-08T09:29:41.330Z,97297.09
2023-01-08T09:32:14.081Z,97303.56
2023-01-08T09:34:44.126Z,97304.97
2023-01-08T09:37:14.441Z,97305.34
2023-01-08T09:39:50.973Z,97301.25
2023-01-08T09:42:30.017Z,97295.78
2023-01-08T09:45:04.792Z,97299.91
2023-01-08T09:47:45.700Z,97302.81
2023-01-08T09:50:17.761Z,97297.16
2023-01-08T09:52:47.949Z,97297.94
2023-01-08T09:55:19.639Z,97296.75
2023-01-08T09:57:51.218Z,97284.47
2023-01-08T10:00:29.067Z,97285.44
2023-01-08T10:03:02.317Z,97294.03
2023-01-08T10:05:34.000Z,97301.84
2023-01-08T10:08:04.232Z,97300.88
2023-01-08T10:10:35.730Z,97307.88
2023-01-08T10:13:06.227Z,97311.22
2023-01-08T10:15:36.992Z,97311.41
2023-01-08T10:18:15.167Z,97311.41
2023-01-08T10:20:45.258Z,97303.22
2023-01-08T10:23:18.668Z,97309.25
2023-01-08T10:25:56.258Z,97302.25
2023-01-08T10:28:29.299Z,97298.31
2023-01-08T10:31:08.919Z,97295.22
2023-01-08T10:33:47.666Z,97290.69
2023-01-08T10:36:27.664Z,97289.91
2023-01-08T10:39:02.507Z,97290.28
2023-01-08T10:41:33.046Z,97288.88
2023-01-08T10:44:07.432Z,97279.53
2023-01-08T10:46:47.671Z,97276.00
2023-01-08T10:49:29.156Z,97269.34
2023-01-08T10:52:03.952Z,97266.97
2023-01-08T10:54:41.104Z,97259.88
2023-01-08T10:57:26.634Z,97264.56
2023-01-08T10:59:58.201Z,97261.22
2023-01-08T11:02:38.830Z,97255.97
2023-01-08T11:05:13.296Z,97255.53
2023-01-08T11:07:44.189Z,97256.88
2023-01-08T11:10:27.780Z,97248.31
2023-01-08T11:13:02.329Z,97254.47
2023-01-08T11:15:41.175Z,97250.28
2023-01-08T11:18:21.875Z,97248.00
2023-01-08T11:20:56.447Z,97239.28
2023-01-08T11:23:30.568Z,97243.06
2023-01-08T11:26:10.025Z,97234.66
2023-01-08T11:28:57.971Z,97233.44
2023-01-08T11:31:44.430Z,97233.88
2023-01-08T11:34:22.605Z,97228.16
2023-01-08T11:37:05.012Z,97216.91
2023-01-08T11:39:40.496Z,97211.47
2023-01-08T11:42:29.381Z,97196.38
2023-01-08T11:45:19.008Z,97189.22
2023-01-08T11:48:27.277Z,97192.25
2023-01-08T11:51:20.409Z,97176.00
2023-01-08T11:54:09.280Z,97170.94
2023-01-08T11:57:03.632Z,97174.81
2023-01-08T11:59:56.137Z,97168.38
2023-01-08T12:02:42.468Z,97164.50
2023-01-08T12:05:31.336Z,97157.50
2023-01-08T12:08:09.732Z,97156.66
2023-01-08T12:11:02.147Z,97156.88
2023-01-08T12:13:53.680Z,97159.19
2023-01-08T12:16:47.253Z,97154.91
2023-01-08T12:19:40.628Z,97147.28
2023-01-08T12:22:32.636Z,97139.56
2023-01-08T12:25:51.030Z,97138.44
2023-01-08T12:29:09.917Z,97142.97
2023-01-08T12:32:26.405Z,97126.38
2023-01-08T12:35:06.206Z,97118.53
2023-01-08T12:37:44.770Z,97121.53
2023-01-08T12:40:25.145Z,97130.31
2023-01-08T12:43:01.167Z,97130.19
2023-01-08T12:45:43.493Z,97141.19
2023-01-08T12:48:19.543Z,97133.25
2023-01-08T12:51:02.414Z,97133.56
2023-01-08T12:53:46.599Z,97126.41
2023-01-08T12:56:27.617Z,97124.25
2023-01-08T12:59:14.036Z,97105.97
2023-01-08T13:01:58.122Z,97107.53
2023-01-08T13:04:28.517Z,97097.97
2023-01-08T13:07:07.253Z,97103.06
2023-01-08T13:09:37.571Z,97108.22
2023-01-08T13:12:09.129Z,97101.47
2023-01-08T13:14:46.996Z,97109.56
2023-01-08T13:17:25.526Z,97097.97
2023-01-08T13:19:58.658Z,97093.25
2023-01-08T13:22:32.182Z,97092.72
2023-01-08T13:25:33.926Z,97095.00
2023-01-08T13:28:05.364Z,97082.81
2023-01-08T13:30:43.117Z,97079.84
2023-01-08T13:33:43.431Z,97077.38
2023-01-08T13:36:24.750Z,97076.81
2023-01-08T13:39:08.528Z,97079.69
2023-01-08T13:41:40.823Z,97076.59
2023-01-08T13:44:29.324Z,97070.72
2023-01-08T13:47:03.205Z,97064.41
2023-01-08T13:49:41.571Z,97058.38
2023-01-08T13:52:45.352Z,97054.19
2023-01-08T13:55:22.775Z,97055.69
2023-01-08T13:57:57.617Z,97047.06
2023-01-08T14:00:34.142Z,97035.88
2023-01-08T14:03:04.533Z,97029.19
2023-01-08T14:05:37.720Z,97030.25
2023-01-08T14:08:08.534Z,97030.63
2023-01-08T14:10:39.996Z,97014.44
2023-01-08T14:13:12.142Z,97018.97
2023-01-08T14:15:42.655Z,97012.16
2023-01-08T14:18:16.616Z,97018.22
2023-01-08T14:20:54.322Z,97022.00
2023-01-08T14:23:30.500Z,97020.75
2023-01-08T14:26:06.486Z,97012.53
2023-01-08T14:28:37.033Z,97013.00
2023-01-08T14:31:07.665Z,97016.72
2023-01-08T14:33:42.117Z,97019.03
2023-01-08T14:36:15.494Z,97021.00
2023-01-08T14:38:50.926Z,97021.81
2023-01-08T14:41:51.190Z,97021.50
2023-01-08T14:44:29.226Z,97019.22
2023-01-08T14:47:07.836Z,97021.88
2023-01-08T14:49:44.786Z,97013.25
2023-01-08T14:52:18.600Z,97001.09
2023-01-08T14:54:52.710Z,97011.84
2023-01-08T14:57:24.411Z,97004.41
2023-01-08T15:00:00.610Z,97008.72
2023-01-08T15:02:36.980Z,97006.94
2023-01-08T15:05:19.206Z,96998.41
2023-01-08T15:08:04.635Z,96993.06
2023-01-08T15:10:42.036Z,96984.53
2023-01-08T15:13:26.247Z,96984.72
2023-01-08T15:16:02.286Z,96976.66
2023-01-08T15:18:32.786Z,96969.44
2023-01-08T15:21:03.058Z,96959.97
2023-01-08T15:23:44.403Z,96960.59
2023-01-08T15:26:17.484Z,96957.22
2023-01-08T15:28:55.442Z,96956.09
2023-01-08T15:31:31.320Z,96953.81
2023-01-08T15:34:03.694Z,96948.44
2023-01-08T15:36:33.757Z,96944.59
2023-01-08T15:39:07.560Z,96931.72
2023-01-08T15:41:52.747Z,96921.75
2023-01-08T15:44:23.056Z,96924.66
2023-01-08T15:46:54.889Z,96914.34
2023-01-08T15:49:25.002Z,96917.69
2023-01-08T15:51:56.119Z,96909.94
2023-01-08T15:54:29.314Z,96908.84
2023-01-08T15:56:59.455Z,96907.53
2023-01-08T15:59:30.162Z,96909.28
2023-01-08T16:02:00.767Z,96910.41
2023-01-08T16:04:30.961Z,96902.88
2023-01-08T16:07:01.534Z,96892.41
2023-01-08T16:09:34.370Z,96896.84
2023-01-08T16:12:04.499Z,96892.41
2023-01-08T16:14:38.084Z,96896.13
2023-01-08T16:17:08.577Z,96891.34
2023-01-08T16:19:38.835Z,96899.19
2023-01-08T16:22:09.060Z,96903.94
2023-01-08T16:24:41.911Z,96897.50
2023-01-08T16:27:11.963Z,96889.22
2023-01-08T16:29:45.103Z,96893.09
2023-01-08T16:32:15.276Z,96897.91
2023-01-08T16:34:45.553Z,96891.94
2023-01-08T16:37:15.720Z,96881.63
2023-01-08T16:39:48.421Z,96872.00
2023-01-08T16:42:18.458Z,96872.69
2023-01-08T16:44:48.565Z,96861.69
2023-01-08T16:47:18.646Z,96855.75
2023-01-08T16:49:56.185Z,96846.28
2023-01-08T16:52:28.440Z,96850.06
2023-01-08T16:55:01.083Z,96840.91
2023-01-08T16:57:31.160Z,96831.16
2023-01-08T17:00:04.349Z,96822.84
2023-01-08T17:02:34.602Z,96811.91
2023-01-08T17:05:07.083Z,96798.63
2023-01-08T17:07:37.912Z,96795.16
2023-01-08T17:10:13.186Z,96792.34
2023-01-08T17:12:43.193Z,96802.19
2023-01-08T17:15:14.312Z,96799.88
2023-01-08T17:17:44.656Z,96808.22
2023-01-08T17:20:16.067Z,96809.09
2023-01-08T17:22:46.329Z,96811.47
2023-01-08T17:25:19.555Z,96812.66
2023-01-08T17:27:49.746Z,96814.66
2023-01-08T17:30:20.530Z,96806.63
2023-01-08T17:32:50.560Z,96804.72
2023-01-08T17:35:20.725Z,96802.22
2023-01-08T17:37:50.948Z,96799.44
2023-01-08T17:40:23.991Z,96794.06
2023-01-08T17:42:53.976Z,96782.25
2023-01-08T17:45:24.314Z,96777.34
2023-01-08T17:47:54.425Z,96785.63
2023-01-08T17:50:24.861Z,96784.78
2023-01-08T17:52:55.670Z,96780.91
2023-01-08T17:55:29.064Z,96789.88
2023-01-08T17:57:59.379Z,96781.53
2023-01-08T18:00:34.044Z,96773.53
2023-01-08T18:03:04.109Z,96777.59
2023-01-08T18:05:35.129Z,96774.88
2023-01-08T18:08:05.378Z,96781.13
2023-01-08T18:10:41.258Z,96770.34
2023-01-08T18:13:11.487Z,96765.38
2023-01-08T18:15:41.476Z,96763.50
2023-01-08T18:18:13.879Z,96760.78
2023-01-08T18:20:44.969Z,96764.75
2023-01-08T18:23:15.162Z,96750.84
2023-01-08T18:25:48.628Z,96750.03
2023-01-08T18:28:18.787Z,96750.66
2023-01-08T18:30:49.264Z,96737.38
2023-01-08T18:33:42.075Z,96729.50
2023-01-08T18:36:15.536Z,96720.16
2023-01-08T18:38:47.226Z,96711.88
2023-01-08T18:41:35.539Z,96705.91
2023-01-08T18:44:09.011Z,96703.28
2023-01-08T18:46:39.881Z,96708.94
2023-01-08T18:49:10.476Z,96710.06
2023-01-08T18:51:40.870Z,96715.84
2023-01-08T18:54:11.908Z,96711.38
2023-01-08T18:56:46.516Z,96706.31
2023-01-08T18:59:16.948Z,96700.75
2023-01-08T19:01:48.286Z,96712.47
2023-01-08T19:04:20.808Z,96712.47
2023-01-08T19:06:51.201Z,96704.28
2023-01-08T19:09:21.390Z,96701.75
2023-01-08T19:11:54.288Z,96706.09
2023-01-08T19:14:25.133Z,96704.13
2023-01-08T19:16:56.549Z,96704.13
2023-01-08T19:19:27.081Z,96705.75
2023-01-08T19:21:57.300Z,96694.47
2023-01-08T19:24:28.115Z,96687.94
2023-01-08T19:27:00.854Z,96676.66
2023-01-08T19:29:31.047Z,96671.56
2023-01-08T19:32:01.151Z,96663.09
2023-01-08T19:34:31.344Z,96649.81
2023-01-08T19:37:01.408Z,96650.91
2023-01-08T19:39:32.482Z,96648.84
2023-01-08T19:42:17.812Z,96653.88
2023-01-08T19:44:50.765Z,96652.38
2023-01-08T19:47:20.894Z,96642.78
2023-01-08T19:49:51.257Z,96644.53
2023-01-08T19:52:22.965Z,96634.94
2023-01-08T19:54:55.461Z,96639.03
2023-01-08T19:57:28.549Z,96633.97
2023-01-08T19:59:58.753Z,96626.13
2023-01-08T20:02:29.444Z,96626.13
2023-01-08T20:04:59.661Z,96627.69
2023-01-08T20:07:29.994Z,96624.72
2023-01-08T20:10:01.569Z,96622.13
2023-01-08T20:12:34.314Z,96621.88
2023-01-08T20:15:04.687Z,96624.22
2023-01-08T20:17:35.079Z,96624.22
2023-01-08T20:20:05.140Z,96623.22
2023-01-08T20:22:35.241Z,96611.56
2023-01-08T20:25:06.198Z,96619.16
2023-01-08T20:27:40.921Z,96609.00
2023-01-08T20:30:14.598Z,96611.38
2023-01-08T20:32:45.229Z,96606.16
2023-01-08T20:35:15.256Z,96608.53
2023-01-08T20:37:46.837Z,96598.94
2023-01-08T20:40:17.225Z,96594.00
2023-01-08T20:42:49.967Z,96595.88
2023-01-08T20:45:20.190Z,96587.63
2023-01-08T20:47:50.308Z,96587.56
2023-01-08T20:50:20.885Z,96584.09
2023-01-08T20:52:51.236Z,96580.53
2023-01-08T20:55:22.048Z,96576.50
2023-01-08T20:57:55.117Z,96581.78
2023-01-08T21:00:25.877Z,96573.06
2023-01-08T21:02:56.151Z,96568.66
2023-01-08T21:05:26.694Z,96577.56
2023-01-08T21:07:56.743Z,96571.88
2023-01-08T21:10:26.868Z,96554.00
2023-01-08T21:12:59.648Z,96561.72
2023-01-08T21:15:29.720Z,96558.56
2023-01-08T21:17:59.804Z,96561.69
2023-01-08T21:20:29.999Z,96550.81
2023-01-08T21:23:00.349Z,96539.88
2023-01-08T21:25:31.064Z,96538.13
2023-01-08T21:28:03.897Z,96543.97
2023-01-08T21:30:34.367Z,96553.91
2023-01-08T21:33:04.788Z,96547.69
2023-01-08T21:35:36.992Z,96534.72
2023-01-08T21:38:09.556Z,96529.91
2023-01-08T21:40:39.688Z,96518.22
2023-01-08T21:43:27.386Z,96508.31
2023-01-08T21:46:03.954Z,96506.41
2023-01-08T21:48:34.024Z,96510.66
2023-01-08T21:51:04.404Z,96500.84
2023-01-08T21:53:33.200Z,96500.44
2023-01-08T21:56:07.231Z,96494.34
2023-01-08T21:58:40.057Z,96491.00
2023-01-08T22:01:12.944Z,96498.59
2023-01-08T22:03:43.221Z,96495.28
2023-01-08T22:06:13.355Z,96493.69
2023-01-08T22:08:43.448Z,96491.16
2023-01-08T22:11:13.512Z,96484.25
2023-01-08T22:13:46.250Z,96489.47
2023-01-08T22:16:17.241Z,96488.22
2023-01-08T22:18:47.462Z,96478.72
2023-01-08T22:21:17.516Z,96473.94
2023-01-08T22:23:47.675Z,96466.50
2023-01-08T22:26:20.148Z,96467.69
2023-01-08T22:28:52.739Z,96467.84
2023-01-08T22:31:22.872Z,96467.41
2023-01-08T22:33:56.853Z,96464.72
2023-01-08T22:36:27.599Z,96464.28
2023-01-08T22:38:57.657Z,96457.84
2023-01-08T22:41:28.455Z,96455.25
2023-01-08T22:44:01.116Z,96458.13
2023-01-08T22:46:31.859Z,96463.53
2023-01-08T22:49:01.868Z,96465.16
2023-01-08T22:51:31.951Z,96462.41
2023-01-08T22:54:02.898Z,96469.13
2023-01-08T22:56:32.973Z,96469.88
2023-01-08T22:59:06.125Z,96462.47
2023-01-08T23:01:36.294Z,96461.41
2023-01-08T23:04:07.495Z,96456.53
2023-01-08T23:06:38.281Z,96449.69
2023-01-08T23:09:08.360Z,96450.72
2023-01-08T23:11:38.481Z,96450.69
2023-01-08T23:14:12.212Z,96453.41
2023-01-08T23:16:42.351Z,96452.03
2023-01-08T23:19:12.776Z,96455.53
2023-01-08T23:21:43.532Z,96458.66
2023-01-08T23:24:16.299Z,96456.69
2023-01-08T23:26:46.441Z,96444.63
2023-01-08T23:29:19.330Z,96445.41
2023-01-08T23:31:49.551Z,96442.38
2023-01-08T23:34:19.591Z,96428.78
2023-01-08T23:36:49.573Z,96425.66
2023-01-08T23:39:20.047Z,96423.28
2023-01-08T23:41:50.566Z,96420.75
2023-01-08T23:44:23.523Z,96418.28
2023-01-08T23:46:53.621Z,96405.19
2023-01-08T23:49:24.282Z,96402.00
2023-01-08T23:51:55.145Z,96401.13
2023-01-08T23:54:25.784Z,96396.75
2023-01-08T23:56:56.320Z,96404.13
2023-01-08T23:59:29.031Z,96401.00
